createdAt,value
2022-12-25T00:01:16.628Z,19.05
2022-12-25T00:06:19.111Z,21.02
2022-12-25T00:11:20.946Z,22.33
2022-12-25T00:16:24.533Z,20.95
2022-12-25T00:21:27.011Z,19.83
2022-12-25T00:26:29.759Z,20.47
2022-12-25T00:31:31.630Z,22.20
2022-12-25T00:36:39.487Z,20.13
2022-12-25T00:41:43.492Z,19.00
2022-12-25T00:46:45.491Z,22.20
2022-12-25T00:51:48.486Z,20.92
2022-12-25T00:56:50.352Z,22.27
2022-12-25T01:01:52.696Z,21.40
2022-12-25T01:06:54.689Z,21.00
2022-12-25T01:11:56.545Z,20.50
2022-12-25T01:16:58.627Z,22.25
2022-12-25T01:22:00.462Z,20.48
2022-12-25T01:27:02.332Z,21.77
2022-12-25T01:32:04.841Z,21.33
2022-12-25T01:37:06.735Z,19.30
2022-12-25T01:42:18.386Z,22.33
2022-12-25T01:47:20.207Z,19.77
2022-12-25T01:52:24.561Z,19.85
2022-12-25T01:57:28.583Z,19.80
2022-12-25T02:02:30.965Z,22.25
2022-12-25T02:07:34.740Z,21.70
2022-12-25T02:12:37.441Z,20.67
2022-12-25T02:17:51.255Z,19.98
2022-12-25T02:27:55.051Z,19.00
2022-12-25T02:32:59.205Z,19.27
2022-12-25T02:38:15.040Z,20.33
2022-12-25T02:43:24.805Z,20.02
2022-12-25T02:48:28.187Z,20.90
2022-12-25T02:53:30.565Z,19.80
2022-12-25T02:58:35.118Z,20.57
2022-12-25T03:03:40.205Z,20.90
2022-12-25T03:08:42.850Z,20.33
2022-12-25T03:13:46.623Z,21.38
2022-12-25T03:18:48.445Z,20.25
2022-12-25T03:23:53.142Z,19.95
2022-12-25T03:28:55.027Z,20.48
2022-12-25T03:34:15.601Z,22.08
2022-12-25T03:39:27.675Z,20.45
2022-12-25T03:44:41.184Z,21.75
2022-12-25T03:49:50.827Z,22.23
2022-12-25T03:54:56.291Z,22.27
2022-12-25T03:59:58.120Z,22.48
2022-12-25T04:04:59.972Z,22.55
2022-12-25T04:10:01.919Z,23.52
2022-12-25T04:15:04.201Z,23.08
2022-12-25T04:20:06.476Z,23.60
2022-12-25T04:25:08.543Z,24.10
2022-12-25T04:30:10.473Z,23.08
2022-12-25T04:35:12.305Z,25.35
2022-12-25T04:40:14.230Z,23.48
2022-12-25T04:45:16.570Z,24.08
2022-12-25T04:50:18.780Z,23.42
2022-12-25T04:55:20.731Z,25.25
2022-12-25T05:00:22.562Z,25.98
2022-12-25T05:05:24.517Z,23.88
2022-12-25T05:10:26.421Z,24.17
2022-12-25T05:15:28.516Z,25.77
2022-12-25T05:20:34.728Z,23.33
2022-12-25T05:25:40.060Z,24.92
2022-12-25T05:30:41.930Z,23.63
2022-12-25T05:35:43.757Z,22.98
2022-12-25T05:40:45.592Z,24.52
2022-12-25T05:45:47.435Z,22.27
2022-12-25T05:50:49.322Z,22.73
2022-12-25T05:55:51.203Z,22.00
2022-12-25T06:00:53.037Z,22.67
2022-12-25T06:05:55.190Z,22.50
2022-12-25T06:10:57.003Z,23.67
2022-12-25T06:15:58.947Z,23.27
2022-12-25T06:21:00.794Z,24.73
2022-12-25T06:26:07.078Z,24.10
2022-12-25T06:31:10.003Z,25.15
2022-12-25T06:36:22.456Z,23.67
2022-12-25T06:41:25.585Z,25.13
2022-12-25T06:46:28.471Z,24.10
2022-12-25T06:51:31.335Z,25.00
2022-12-25T06:56:33.889Z,23.95
2022-12-25T07:01:37.992Z,24.77
2022-12-25T07:06:39.863Z,26.77
2022-12-25T07:11:41.680Z,26.10
2022-12-25T07:16:43.561Z,26.45
2022-12-25T07:21:45.460Z,26.33
2022-12-25T07:26:47.602Z,26.10
2022-12-25T07:31:49.656Z,25.15
2022-12-25T07:36:51.713Z,25.08
2022-12-25T07:41:53.606Z,24.92
2022-12-25T07:46:55.485Z,26.25
2022-12-25T07:51:57.361Z,24.42
2022-12-25T07:56:59.214Z,26.27
2022-12-25T08:02:01.185Z,25.70
2022-12-25T08:07:03.182Z,27.13
2022-12-25T08:12:05.233Z,26.60
2022-12-25T08:17:07.189Z,25.73
2022-12-25T08:22:09.083Z,25.90
2022-12-25T08:27:10.923Z,24.73
2022-12-25T08:32:12.737Z,24.00
2022-12-25T08:37:14.636Z,22.60
2022-12-25T08:42:16.509Z,22.75
2022-12-25T08:47:18.451Z,22.40
2022-12-25T08:52:20.265Z,21.50
2022-12-25T08:57:22.167Z,20.77
2022-12-25T09:02:24.148Z,20.10
2022-12-25T09:07:26.310Z,19.92
2022-12-25T09:12:28.233Z,19.77
2022-12-25T09:17:30.385Z,19.38
2022-12-25T09:22:32.208Z,18.88
2022-12-25T09:27:34.077Z,17.70
2022-12-25T09:32:36.265Z,17.83
2022-12-25T09:37:38.118Z,16.83
2022-12-25T09:42:40.130Z,18.02
2022-12-25T09:47:44.296Z,16.08
2022-12-25T09:52:46.378Z,17.92
2022-12-25T09:57:50.528Z,18.23
2022-12-25T10:03:00.857Z,17.20
2022-12-25T10:08:18.593Z,16.90
2022-12-25T10:13:38.200Z,17.05
2022-12-25T10:18:42.864Z,15.45
2022-12-25T10:23:55.103Z,16.25
2022-12-25T10:29:11.977Z,16.20
2022-12-25T10:34:14.559Z,14.88
2022-12-25T10:39:17.901Z,14.47
2022-12-25T10:49:23.134Z,12.90
2022-12-25T10:59:27.940Z,12.90
2022-12-25T11:04:35.032Z,13.13
2022-12-25T11:09:37.196Z,12.93
2022-12-25T11:14:39.091Z,11.85
2022-12-25T11:19:51.174Z,11.75
2022-12-25T11:24:53.002Z,11.38
2022-12-25T11:29:59.503Z,10.43
2022-12-25T11:35:02.024Z,9.93
2022-12-25T11:40:04.546Z,9.50
2022-12-25T11:45:19.602Z,9.43
2022-12-25T11:50:35.088Z,9.25
2022-12-25T11:55:44.344Z,8.32
2022-12-25T12:00:47.420Z,8.55
2022-12-25T12:05:55.207Z,8.88
2022-12-25T12:11:03.053Z,8.02
2022-12-25T12:16:05.092Z,7.55
2022-12-25T12:21:06.991Z,7.43
2022-12-25T12:26:17.195Z,6.78
2022-12-25T12:31:19.170Z,8.70
2022-12-25T12:36:29.067Z,7.50
2022-12-25T12:41:43.092Z,6.68
2022-12-25T12:46:56.001Z,7.55
2022-12-25T12:52:20.791Z,7.10
2022-12-25T12:57:24.928Z,7.25
2022-12-25T13:02:52.246Z,6.80
2022-12-25T13:08:02.048Z,6.55
2022-12-25T13:13:12.659Z,6.50
2022-12-25T13:18:14.959Z,7.15
2022-12-25T13:23:29.094Z,7.68
2022-12-25T13:28:35.356Z,7.68
2022-12-25T13:33:37.447Z,7.38
2022-12-25T13:38:46.184Z,8.15
2022-12-25T13:43:48.663Z,7.55
2022-12-25T13:48:55.413Z,8.90
2022-12-25T13:54:04.445Z,8.10
2022-12-25T13:59:06.441Z,9.30
2022-12-25T14:04:13.536Z,8.63
2022-12-25T14:09:15.899Z,9.65
2022-12-25T14:14:22.078Z,10.07
2022-12-25T14:19:28.965Z,10.18
2022-12-25T14:24:31.622Z,11.32
2022-12-25T14:29:43.809Z,11.00
2022-12-25T14:34:47.370Z,13.30
2022-12-25T14:39:56.816Z,12.95
2022-12-25T14:45:06.562Z,13.23
2022-12-25T14:50:26.755Z,13.68
2022-12-25T14:55:29.722Z,13.93
2022-12-25T15:00:38.529Z,13.20
2022-12-25T15:05:40.383Z,14.60
2022-12-25T15:11:00.528Z,13.70
2022-12-25T15:16:14.160Z,13.70
2022-12-25T15:21:26.450Z,13.40
2022-12-25T15:26:30.069Z,13.30
2022-12-25T15:31:32.560Z,14.15
2022-12-25T15:36:34.530Z,14.20
2022-12-25T15:41:37.852Z,14.80
2022-12-25T15:51:42.205Z,14.32
2022-12-25T15:56:48.588Z,15.17
2022-12-25T16:01:52.274Z,15.20
2022-12-25T16:06:55.206Z,16.67
2022-12-25T16:11:57.076Z,15.85
2022-12-25T16:16:59.127Z,16.88
2022-12-25T16:22:00.960Z,16.02
2022-12-25T16:27:02.848Z,16.85
2022-12-25T16:32:04.973Z,16.65
2022-12-25T16:37:06.859Z,17.20
2022-12-25T16:42:08.859Z,16.95
2022-12-25T16:47:10.914Z,16.38
2022-12-25T16:52:12.991Z,15.98
2022-12-25T16:57:15.081Z,16.85
2022-12-25T17:02:17.998Z,16.42
2022-12-25T17:07:20.197Z,18.10
2022-12-25T17:12:22.442Z,16.92
2022-12-25T17:17:24.250Z,17.30
2022-12-25T17:22:26.257Z,17.63
2022-12-25T17:27:28.377Z,17.30
2022-12-25T17:32:30.501Z,18.05
2022-12-25T17:37:33.098Z,17.50
2022-12-25T17:42:35.076Z,17.43
2022-12-25T17:47:36.916Z,17.75
2022-12-25T17:52:38.716Z,18.23
2022-12-25T17:57:41.446Z,18.55
2022-12-25T18:02:43.477Z,19.52
2022-12-25T18:07:45.779Z,18.80
2022-12-25T18:12:47.616Z,17.48
2022-12-25T18:17:49.417Z,18.00
2022-12-25T18:22:51.228Z,16.88
2022-12-25T18:27:53.117Z,17.85
2022-12-25T18:32:55.183Z,16.23
2022-12-25T18:37:57.114Z,16.85
2022-12-25T18:43:03.148Z,17.90
2022-12-25T18:48:05.786Z,14.60
2022-12-25T18:53:07.797Z,14.68
2022-12-25T18:58:10.440Z,15.32
2022-12-25T19:03:12.296Z,17.80
2022-12-25T19:08:14.514Z,13.55
2022-12-25T19:13:16.341Z,12.52
2022-12-25T19:18:18.165Z,14.75
2022-12-25T19:23:20.068Z,14.38
2022-12-25T19:28:21.894Z,14.15
2022-12-25T19:33:23.767Z,13.70
2022-12-25T19:38:25.707Z,13.90
2022-12-25T19:43:27.515Z,13.63
2022-12-25T19:48:30.121Z,13.02
2022-12-25T19:53:32.038Z,15.55
2022-12-25T19:58:33.889Z,16.20
2022-12-25T20:03:38.830Z,15.90
2022-12-25T20:08:46.069Z,17.55
2022-12-25T20:13:48.201Z,17.80
2022-12-25T20:18:50.169Z,17.00
2022-12-25T20:23:52.486Z,17.52
2022-12-25T20:28:54.561Z,14.68
2022-12-25T20:33:57.697Z,12.52
2022-12-25T20:38:59.557Z,21.25
2022-12-25T20:44:01.423Z,19.80
2022-12-25T20:49:03.437Z,23.80
2022-12-25T20:54:06.502Z,25.17
2022-12-25T20:59:09.071Z,26.35
2022-12-25T21:04:16.032Z,22.73
2022-12-25T21:09:18.420Z,22.23
2022-12-25T21:14:20.274Z,22.80
2022-12-25T21:19:22.247Z,21.20
2022-12-25T21:24:25.282Z,18.10
2022-12-25T21:29:27.156Z,20.30
2022-12-25T21:34:29.407Z,22.17
2022-12-25T21:39:31.494Z,21.90
2022-12-25T21:44:33.365Z,23.95
2022-12-25T21:49:35.232Z,20.35
2022-12-25T21:54:37.161Z,21.20
2022-12-25T21:59:39.821Z,21.10
2022-12-25T22:04:41.748Z,21.50
2022-12-25T22:09:44.376Z,23.27
2022-12-25T22:14:51.195Z,21.35
2022-12-25T22:19:55.697Z,23.20
2022-12-25T22:24:58.777Z,22.55
2022-12-25T22:30:00.678Z,26.98
2022-12-25T22:35:02.728Z,22.33
2022-12-25T22:40:05.295Z,23.23
2022-12-25T22:45:07.401Z,23.80
2022-12-25T22:50:10.063Z,27.35
2022-12-25T22:55:12.020Z,27.88
2022-12-25T23:00:13.933Z,24.08
2022-12-25T23:05:15.837Z,29.65
2022-12-25T23:10:17.765Z,25.08
2022-12-25T23:15:19.678Z,28.45
2022-12-25T23:20:21.566Z,27.60
2022-12-25T23:25:23.506Z,26.90
2022-12-25T23:30:25.298Z,25.95
2022-12-25T23:35:27.120Z,26.40
2022-12-25T23:40:29.054Z,23.90
2022-12-25T23:45:30.873Z,24.23
2022-12-25T23:50:33.526Z,21.52
2022-12-25T23:55:35.429Z,22.98
